Aviation Digital Data Service (ADDS)

Output produced by METARs form (0231 UTC 21 November 2017)
found at http://www.aviationweather.gov/adds/metars/
 
METAR text: KVIH 210153Z AUTO 19015KT 10SM CLR 10/M03 A2988 RMK AO2 SLP121 T01001028
Conditions at: KVIH (VICHY/ROLLA , MO, US) observed 0153 UTC 21 November 2017
Temperature: 10.0°C (50°F)
Dewpoint: -2.8°C (27°F) [RH = 40%]
Pressure (altimeter): 29.88 inches Hg (1011.9 mb)
[Sea-level pressure: 1012.1 mb]
Winds: from the S (190 degrees) at 17 MPH (15 knots; 7.8 m/s)
Visibility: 10 or more miles (16+ km)
Ceiling: at least 12,000 feet AGL
Clouds: sky clear below 12,000 feet AGL
Weather: automated observation with no human augmentation;
there may or may not be significant weather present at this time